sensor_id;sensor_type;location;lat;lon;timestamp;P1;durP1;ratioP1;P2;durP2;ratioP2
10430;SDS011;5262;59.958;17.726;2022-09-09T00:04:37;1.93;;;1.57;;
10430;SDS011;5262;59.958;17.726;2022-09-09T00:07:21;2.97;;;2.10;;
10430;SDS011;5262;59.958;17.726;2022-09-09T00:10:13;3.73;;;1.63;;
10430;SDS011;5262;59.958;17.726;2022-09-09T00:16:21;2.20;;;1.80;;
10430;SDS011;5262;59.958;17.726;2022-09-09T00:18:59;2.90;;;1.87;;
10430;SDS011;5262;59.958;17.726;2022-09-09T00:21:36;3.63;;;2.20;;
10430;SDS011;5262;59.958;17.726;2022-09-09T00:24:24;3.43;;;2.00;;
10430;SDS011;5262;59.958;17.726;2022-09-09T00:29:45;2.70;;;2.27;;
10430;SDS011;5262;59.958;17.726;2022-09-09T00:32:34;2.47;;;2.27;;
10430;SDS011;5262;59.958;17.726;2022-09-09T00:35:11;2.50;;;2.30;;
10430;SDS011;5262;59.958;17.726;2022-09-09T00:37:43;3.13;;;2.10;;
10430;SDS011;5262;59.958;17.726;2022-09-09T00:57:14;2.27;;;2.07;;
10430;SDS011;5262;59.958;17.726;2022-09-09T00:59:52;3.40;;;2.20;;
10430;SDS011;5262;59.958;17.726;2022-09-09T01:05:40;2.70;;;2.03;;
10430;SDS011;5262;59.958;17.726;2022-09-09T01:08:56;2.47;;;2.03;;
10430;SDS011;5262;59.958;17.726;2022-09-09T01:11:01;2.10;;;2.00;;
10430;SDS011;5262;59.958;17.726;2022-09-09T01:13:31;1.90;;;1.80;;
10430;SDS011;5262;59.958;17.726;2022-09-09T01:16:00;2.03;;;1.93;;
10430;SDS011;5262;59.958;17.726;2022-09-09T01:18:29;2.40;;;2.00;;
10430;SDS011;5262;59.958;17.726;2022-09-09T01:26:42;2.30;;;2.10;;
10430;SDS011;5262;59.958;17.726;2022-09-09T01:29:14;2.43;;;2.23;;
10430;SDS011;5262;59.958;17.726;2022-09-09T01:34:24;2.20;;;2.00;;
10430;SDS011;5262;59.958;17.726;2022-09-09T01:39:29;3.80;;;2.13;;
10430;SDS011;5262;59.958;17.726;2022-09-09T01:41:56;4.30;;;2.10;;
10430;SDS011;5262;59.958;17.726;2022-09-09T01:44:22;2.67;;;2.30;;
10430;SDS011;5262;59.958;17.726;2022-09-09T01:46:49;2.07;;;1.97;;
10430;SDS011;5262;59.958;17.726;2022-09-09T01:49:15;4.07;;;1.80;;
10430;SDS011;5262;59.958;17.726;2022-09-09T01:51:41;2.20;;;2.00;;
10430;SDS011;5262;59.958;17.726;2022-09-09T01:54:08;2.43;;;2.23;;
10430;SDS011;5262;59.958;17.726;2022-09-09T01:56:39;2.40;;;2.20;;
10430;SDS011;5262;59.958;17.726;2022-09-09T02:02:02;1.83;;;1.63;;
10430;SDS011;5262;59.958;17.726;2022-09-09T02:04:43;2.10;;;1.90;;
10430;SDS011;5262;59.958;17.726;2022-09-09T02:07:24;4.33;;;1.90;;
10430;SDS011;5262;59.958;17.726;2022-09-09T02:13:00;2.17;;;1.97;;
10430;SDS011;5262;59.958;17.726;2022-09-09T02:18:28;3.83;;;1.80;;
10430;SDS011;5262;59.958;17.726;2022-09-09T02:21:17;1.70;;;1.60;;
10430;SDS011;5262;59.958;17.726;2022-09-09T02:23:43;2.77;;;2.00;;
10430;SDS011;5262;59.958;17.726;2022-09-09T02:26:12;2.00;;;1.90;;
10430;SDS011;5262;59.958;17.726;2022-09-09T02:28:44;1.90;;;1.77;;
10430;SDS011;5262;59.958;17.726;2022-09-09T02:31:12;2.80;;;1.70;;
10430;SDS011;5262;59.958;17.726;2022-09-09T02:33:43;3.00;;;1.60;;
10430;SDS011;5262;59.958;17.726;2022-09-09T02:36:12;1.70;;;1.60;;
10430;SDS011;5262;59.958;17.726;2022-09-09T02:38:42;3.90;;;1.67;;
10430;SDS011;5262;59.958;17.726;2022-09-09T02:41:15;2.40;;;2.00;;
10430;SDS011;5262;59.958;17.726;2022-09-09T02:43:46;2.00;;;1.80;;
10430;SDS011;5262;59.958;17.726;2022-09-09T02:46:21;3.70;;;1.53;;
10430;SDS011;5262;59.958;17.726;2022-09-09T02:48:59;2.07;;;1.83;;
10430;SDS011;5262;59.958;17.726;2022-09-09T02:54:28;1.90;;;1.80;;
10430;SDS011;5262;59.958;17.726;2022-09-09T02:56:56;2.17;;;2.07;;
10430;SDS011;5262;59.958;17.726;2022-09-09T02:59:44;3.27;;;1.87;;
10430;SDS011;5262;59.958;17.726;2022-09-09T03:02:10;2.07;;;1.80;;
10430;SDS011;5262;59.958;17.726;2022-09-09T03:04:37;2.73;;;1.60;;
10430;SDS011;5262;59.958;17.726;2022-09-09T03:07:04;1.67;;;1.57;;
10430;SDS011;5262;59.958;17.726;2022-09-09T03:09:30;2.30;;;2.00;;
10430;SDS011;5262;59.958;17.726;2022-09-09T03:11:55;1.93;;;1.80;;
10430;SDS011;5262;59.958;17.726;2022-09-09T03:14:22;2.57;;;2.00;;
10430;SDS011;5262;59.958;17.726;2022-09-09T03:16:53;1.87;;;1.77;;
10430;SDS011;5262;59.958;17.726;2022-09-09T03:19:20;2.87;;;1.80;;
10430;SDS011;5262;59.958;17.726;2022-09-09T03:21:46;3.13;;;1.57;;
10430;SDS011;5262;59.958;17.726;2022-09-09T03:24:13;2.20;;;1.87;;
10430;SDS011;5262;59.958;17.726;2022-09-09T03:26:39;2.43;;;1.83;;
10430;SDS011;5262;59.958;17.726;2022-09-09T03:29:06;2.60;;;1.50;;
10430;SDS011;5262;59.958;17.726;2022-09-09T03:31:32;2.23;;;2.03;;
10430;SDS011;5262;59.958;17.726;2022-09-09T03:33:59;3.20;;;1.77;;
10430;SDS011;5262;59.958;17.726;2022-09-09T03:36:25;2.37;;;2.00;;
10430;SDS011;5262;59.958;17.726;2022-09-09T03:38:51;2.00;;;1.70;;
10430;SDS011;5262;59.958;17.726;2022-09-09T03:41:19;1.70;;;1.60;;
10430;SDS011;5262;59.958;17.726;2022-09-09T03:43:45;2.00;;;1.80;;
10430;SDS011;5262;59.958;17.726;2022-09-09T03:46:10;2.00;;;1.80;;
10430;SDS011;5262;59.958;17.726;2022-09-09T03:48:36;2.77;;;1.60;;
10430;SDS011;5262;59.958;17.726;2022-09-09T03:51:02;1.90;;;1.80;;
10430;SDS011;5262;59.958;17.726;2022-09-09T03:53:28;2.67;;;1.50;;
10430;SDS011;5262;59.958;17.726;2022-09-09T03:55:54;1.80;;;1.70;;
10430;SDS011;5262;59.958;17.726;2022-09-09T03:58:22;2.10;;;1.60;;
10430;SDS011;5262;59.958;17.726;2022-09-09T04:00:55;1.93;;;1.50;;
10430;SDS011;5262;59.958;17.726;2022-09-09T04:03:23;1.77;;;1.67;;
10430;SDS011;5262;59.958;17.726;2022-09-09T04:05:50;1.80;;;1.30;;
10430;SDS011;5262;59.958;17.726;2022-09-09T04:08:16;1.70;;;1.60;;
10430;SDS011;5262;59.958;17.726;2022-09-09T04:10:47;4.50;;;1.60;;
10430;SDS011;5262;59.958;17.726;2022-09-09T04:13:15;1.93;;;1.73;;
10430;SDS011;5262;59.958;17.726;2022-09-09T04:15:42;1.90;;;1.60;;
10430;SDS011;5262;59.958;17.726;2022-09-09T04:18:08;2.30;;;1.40;;
10430;SDS011;5262;59.958;17.726;2022-09-09T04:20:34;1.60;;;1.50;;
10430;SDS011;5262;59.958;17.726;2022-09-09T04:23:00;4.10;;;1.70;;
10430;SDS011;5262;59.958;17.726;2022-09-09T04:25:26;3.33;;;1.80;;
10430;SDS011;5262;59.958;17.726;2022-09-09T04:27:55;4.13;;;1.63;;
10430;SDS011;5262;59.958;17.726;2022-09-09T04:30:22;4.50;;;2.37;;
10430;SDS011;5262;59.958;17.726;2022-09-09T04:32:48;2.20;;;1.80;;
10430;SDS011;5262;59.958;17.726;2022-09-09T04:35:14;2.00;;;1.60;;
10430;SDS011;5262;59.958;17.726;2022-09-09T04:37:40;4.50;;;1.67;;
10430;SDS011;5262;59.958;17.726;2022-09-09T04:40:06;1.93;;;1.47;;
10430;SDS011;5262;59.958;17.726;2022-09-09T04:42:36;2.13;;;1.40;;
10430;SDS011;5262;59.958;17.726;2022-09-09T04:45:02;1.50;;;1.40;;
10430;SDS011;5262;59.958;17.726;2022-09-09T04:47:28;1.50;;;1.30;;
10430;SDS011;5262;59.958;17.726;2022-09-09T04:49:54;1.20;;;1.10;;
10430;SDS011;5262;59.958;17.726;2022-09-09T04:52:20;1.50;;;1.40;;
10430;SDS011;5262;59.958;17.726;2022-09-09T04:54:46;1.63;;;1.20;;
10430;SDS011;5262;59.958;17.726;2022-09-09T04:57:12;3.27;;;1.30;;
10430;SDS011;5262;59.958;17.726;2022-09-09T04:59:38;3.03;;;1.50;;
10430;SDS011;5262;59.958;17.726;2022-09-09T05:02:04;2.53;;;1.23;;
10430;SDS011;5262;59.958;17.726;2022-09-09T05:04:30;1.60;;;1.20;;
10430;SDS011;5262;59.958;17.726;2022-09-09T05:06:56;1.30;;;1.20;;
10430;SDS011;5262;59.958;17.726;2022-09-09T05:09:22;3.83;;;1.40;;
10430;SDS011;5262;59.958;17.726;2022-09-09T05:11:48;2.50;;;1.30;;
10430;SDS011;5262;59.958;17.726;2022-09-09T05:14:13;2.17;;;1.40;;
10430;SDS011;5262;59.958;17.726;2022-09-09T05:16:40;1.87;;;1.20;;
10430;SDS011;5262;59.958;17.726;2022-09-09T05:19:06;1.23;;;1.13;;
10430;SDS011;5262;59.958;17.726;2022-09-09T05:21:33;1.30;;;1.20;;
10430;SDS011;5262;59.958;17.726;2022-09-09T05:23:59;1.10;;;1.00;;
10430;SDS011;5262;59.958;17.726;2022-09-09T05:26:25;1.77;;;1.20;;
10430;SDS011;5262;59.958;17.726;2022-09-09T05:28:51;2.10;;;1.17;;
10430;SDS011;5262;59.958;17.726;2022-09-09T05:31:17;3.23;;;1.40;;
10430;SDS011;5262;59.958;17.726;2022-09-09T05:33:44;1.43;;;1.23;;
10430;SDS011;5262;59.958;17.726;2022-09-09T05:36:12;1.20;;;1.10;;
10430;SDS011;5262;59.958;17.726;2022-09-09T05:38:40;1.60;;;1.37;;
10430;SDS011;5262;59.958;17.726;2022-09-09T05:41:07;1.53;;;1.30;;
10430;SDS011;5262;59.958;17.726;2022-09-09T05:43:33;1.30;;;1.20;;
10430;SDS011;5262;59.958;17.726;2022-09-09T05:46:00;1.57;;;1.20;;
10430;SDS011;5262;59.958;17.726;2022-09-09T05:48:34;1.33;;;1.23;;
10430;SDS011;5262;59.958;17.726;2022-09-09T05:51:02;1.40;;;1.10;;
10430;SDS011;5262;59.958;17.726;2022-09-09T05:53:29;1.23;;;1.13;;
10430;SDS011;5262;59.958;17.726;2022-09-09T05:56:24;1.07;;;0.97;;
10430;SDS011;5262;59.958;17.726;2022-09-09T05:58:50;1.60;;;1.00;;
10430;SDS011;5262;59.958;17.726;2022-09-09T06:01:19;1.00;;;0.90;;
10430;SDS011;5262;59.958;17.726;2022-09-09T06:03:47;2.53;;;1.20;;
10430;SDS011;5262;59.958;17.726;2022-09-09T06:06:21;1.30;;;1.20;;
10430;SDS011;5262;59.958;17.726;2022-09-09T06:08:51;1.33;;;1.00;;
10430;SDS011;5262;59.958;17.726;2022-09-09T06:11:27;1.53;;;0.97;;
10430;SDS011;5262;59.958;17.726;2022-09-09T06:13:57;1.93;;;1.10;;
10430;SDS011;5262;59.958;17.726;2022-09-09T06:16:24;2.30;;;1.10;;
10430;SDS011;5262;59.958;17.726;2022-09-09T06:18:52;3.23;;;1.10;;
10430;SDS011;5262;59.958;17.726;2022-09-09T06:21:23;1.30;;;1.10;;
10430;SDS011;5262;59.958;17.726;2022-09-09T06:23:50;2.30;;;0.90;;
10430;SDS011;5262;59.958;17.726;2022-09-09T06:26:20;2.27;;;0.90;;
10430;SDS011;5262;59.958;17.726;2022-09-09T06:28:48;1.20;;;1.00;;
10430;SDS011;5262;59.958;17.726;2022-09-09T06:31:16;2.00;;;0.90;;
10430;SDS011;5262;59.958;17.726;2022-09-09T06:33:46;2.20;;;0.90;;
10430;SDS011;5262;59.958;17.726;2022-09-09T06:36:13;1.00;;;0.87;;
10430;SDS011;5262;59.958;17.726;2022-09-09T06:38:43;2.37;;;0.90;;
10430;SDS011;5262;59.958;17.726;2022-09-09T06:41:11;1.47;;;1.07;;
10430;SDS011;5262;59.958;17.726;2022-09-09T06:43:37;2.93;;;0.90;;
10430;SDS011;5262;59.958;17.726;2022-09-09T06:46:08;0.80;;;0.80;;
10430;SDS011;5262;59.958;17.726;2022-09-09T06:48:36;1.70;;;0.70;;
10430;SDS011;5262;59.958;17.726;2022-09-09T06:51:04;0.90;;;0.70;;
10430;SDS011;5262;59.958;17.726;2022-09-09T06:53:32;0.90;;;0.83;;
10430;SDS011;5262;59.958;17.726;2022-09-09T06:56:00;1.93;;;0.80;;
10430;SDS011;5262;59.958;17.726;2022-09-09T06:58:47;1.47;;;1.17;;
10430;SDS011;5262;59.958;17.726;2022-09-09T07:01:17;1.80;;;0.77;;
10430;SDS011;5262;59.958;17.726;2022-09-09T07:03:45;1.10;;;0.70;;
10430;SDS011;5262;59.958;17.726;2022-09-09T07:06:14;2.00;;;0.80;;
10430;SDS011;5262;59.958;17.726;2022-09-09T07:08:42;1.37;;;0.70;;
10430;SDS011;5262;59.958;17.726;2022-09-09T07:11:08;1.20;;;0.73;;
10430;SDS011;5262;59.958;17.726;2022-09-09T07:13:35;1.00;;;0.90;;
10430;SDS011;5262;59.958;17.726;2022-09-09T07:16:04;1.97;;;0.80;;
10430;SDS011;5262;59.958;17.726;2022-09-09T07:18:31;1.00;;;0.80;;
10430;SDS011;5262;59.958;17.726;2022-09-09T07:20:57;1.13;;;0.90;;
10430;SDS011;5262;59.958;17.726;2022-09-09T07:23:22;2.10;;;0.90;;
10430;SDS011;5262;59.958;17.726;2022-09-09T07:25:49;2.10;;;0.83;;
10430;SDS011;5262;59.958;17.726;2022-09-09T07:28:15;0.80;;;0.70;;
10430;SDS011;5262;59.958;17.726;2022-09-09T07:30:41;1.10;;;1.00;;
10430;SDS011;5262;59.958;17.726;2022-09-09T07:33:08;1.40;;;0.80;;
10430;SDS011;5262;59.958;17.726;2022-09-09T07:35:37;2.80;;;1.13;;
10430;SDS011;5262;59.958;17.726;2022-09-09T07:38:03;1.10;;;1.00;;
10430;SDS011;5262;59.958;17.726;2022-09-09T07:40:32;1.20;;;1.10;;
10430;SDS011;5262;59.958;17.726;2022-09-09T07:42:59;0.90;;;0.90;;
10430;SDS011;5262;59.958;17.726;2022-09-09T07:45:25;1.20;;;0.80;;
10430;SDS011;5262;59.958;17.726;2022-09-09T07:47:53;1.10;;;0.93;;
10430;SDS011;5262;59.958;17.726;2022-09-09T07:50:18;1.87;;;0.90;;
10430;SDS011;5262;59.958;17.726;2022-09-09T07:52:44;0.70;;;0.67;;
10430;SDS011;5262;59.958;17.726;2022-09-09T07:55:10;2.07;;;0.83;;
10430;SDS011;5262;59.958;17.726;2022-09-09T07:57:35;0.73;;;0.70;;
10430;SDS011;5262;59.958;17.726;2022-09-09T08:00:02;0.97;;;0.50;;
10430;SDS011;5262;59.958;17.726;2022-09-09T08:02:29;1.43;;;0.70;;
10430;SDS011;5262;59.958;17.726;2022-09-09T08:04:54;0.70;;;0.57;;
10430;SDS011;5262;59.958;17.726;2022-09-09T08:07:21;0.70;;;0.50;;
10430;SDS011;5262;59.958;17.726;2022-09-09T08:09:47;0.87;;;0.50;;
10430;SDS011;5262;59.958;17.726;2022-09-09T08:12:14;1.07;;;0.60;;
10430;SDS011;5262;59.958;17.726;2022-09-09T08:14:41;1.53;;;0.50;;
10430;SDS011;5262;59.958;17.726;2022-09-09T08:17:07;1.77;;;0.60;;
10430;SDS011;5262;59.958;17.726;2022-09-09T08:19:33;2.97;;;0.83;;
10430;SDS011;5262;59.958;17.726;2022-09-09T08:22:02;2.10;;;0.43;;
10430;SDS011;5262;59.958;17.726;2022-09-09T08:24:28;1.03;;;0.60;;
10430;SDS011;5262;59.958;17.726;2022-09-09T08:26:54;0.80;;;0.50;;
10430;SDS011;5262;59.958;17.726;2022-09-09T08:29:21;0.70;;;0.60;;
10430;SDS011;5262;59.958;17.726;2022-09-09T08:34:22;1.20;;;0.40;;
10430;SDS011;5262;59.958;17.726;2022-09-09T08:36:49;0.93;;;0.50;;
10430;SDS011;5262;59.958;17.726;2022-09-09T08:39:16;1.07;;;0.50;;
10430;SDS011;5262;59.958;17.726;2022-09-09T08:50:34;2.38;;;0.60;;
10430;SDS011;5262;59.958;17.726;2022-09-09T08:53:05;2.60;;;0.50;;
10430;SDS011;5262;59.958;17.726;2022-09-09T08:58:23;1.88;;;0.85;;
10430;SDS011;5262;59.958;17.726;2022-09-09T09:01:15;0.73;;;0.43;;
10430;SDS011;5262;59.958;17.726;2022-09-09T09:09:37;4.85;;;0.80;;
10430;SDS011;5262;59.958;17.726;2022-09-09T09:12:21;0.88;;;0.45;;
10430;SDS011;5262;59.958;17.726;2022-09-09T09:14:49;1.90;;;0.50;;
10430;SDS011;5262;59.958;17.726;2022-09-09T09:17:19;1.03;;;0.40;;
10430;SDS011;5262;59.958;17.726;2022-09-09T09:19:47;3.07;;;0.67;;
10430;SDS011;5262;59.958;17.726;2022-09-09T09:22:21;1.10;;;0.60;;
10430;SDS011;5262;59.958;17.726;2022-09-09T09:24:54;0.90;;;0.47;;
10430;SDS011;5262;59.958;17.726;2022-09-09T09:29:59;2.03;;;0.50;;
10430;SDS011;5262;59.958;17.726;2022-09-09T09:32:40;0.77;;;0.40;;
10430;SDS011;5262;59.958;17.726;2022-09-09T09:35:28;1.53;;;0.70;;
10430;SDS011;5262;59.958;17.726;2022-09-09T09:37:54;1.43;;;0.40;;
10430;SDS011;5262;59.958;17.726;2022-09-09T09:40:20;1.73;;;0.63;;
10430;SDS011;5262;59.958;17.726;2022-09-09T09:42:55;1.13;;;0.37;;
10430;SDS011;5262;59.958;17.726;2022-09-09T09:45:27;2.25;;;0.52;;
10430;SDS011;5262;59.958;17.726;2022-09-09T09:48:04;2.80;;;0.50;;
10430;SDS011;5262;59.958;17.726;2022-09-09T09:50:31;2.55;;;0.68;;
10430;SDS011;5262;59.958;17.726;2022-09-09T09:52:59;1.48;;;0.43;;
10430;SDS011;5262;59.958;17.726;2022-09-09T09:55:29;1.10;;;0.55;;
10430;SDS011;5262;59.958;17.726;2022-09-09T09:58:02;2.35;;;0.63;;
10430;SDS011;5262;59.958;17.726;2022-09-09T10:00:32;0.98;;;0.40;;
10430;SDS011;5262;59.958;17.726;2022-09-09T10:03:00;0.90;;;0.50;;
10430;SDS011;5262;59.958;17.726;2022-09-09T10:05:27;1.20;;;0.60;;
10430;SDS011;5262;59.958;17.726;2022-09-09T10:08:01;2.08;;;0.47;;
10430;SDS011;5262;59.958;17.726;2022-09-09T10:10:53;1.00;;;0.50;;
10430;SDS011;5262;59.958;17.726;2022-09-09T10:16:30;3.03;;;0.63;;
10430;SDS011;5262;59.958;17.726;2022-09-09T10:19:05;3.53;;;0.70;;
10430;SDS011;5262;59.958;17.726;2022-09-09T10:21:56;3.22;;;0.63;;
10430;SDS011;5262;59.958;17.726;2022-09-09T10:30:09;1.17;;;0.50;;
10430;SDS011;5262;59.958;17.726;2022-09-09T10:35:56;1.60;;;0.40;;
10430;SDS011;5262;59.958;17.726;2022-09-09T10:38:45;1.63;;;0.40;;
10430;SDS011;5262;59.958;17.726;2022-09-09T10:41:19;1.08;;;0.50;;
10430;SDS011;5262;59.958;17.726;2022-09-09T10:49:43;1.35;;;0.60;;
10430;SDS011;5262;59.958;17.726;2022-09-09T10:55:00;2.73;;;0.60;;
10430;SDS011;5262;59.958;17.726;2022-09-09T10:57:39;1.90;;;0.43;;
10430;SDS011;5262;59.958;17.726;2022-09-09T11:02:44;2.00;;;0.40;;
10430;SDS011;5262;59.958;17.726;2022-09-09T11:05:46;1.80;;;0.40;;
10430;SDS011;5262;59.958;17.726;2022-09-09T11:08:25;1.13;;;0.50;;
10430;SDS011;5262;59.958;17.726;2022-09-09T11:13:45;1.30;;;0.60;;
10430;SDS011;5262;59.958;17.726;2022-09-09T11:16:28;1.00;;;0.60;;
10430;SDS011;5262;59.958;17.726;2022-09-09T11:19:16;0.77;;;0.40;;
10430;SDS011;5262;59.958;17.726;2022-09-09T11:21:59;2.50;;;0.57;;
10430;SDS011;5262;59.958;17.726;2022-09-09T11:24:45;3.47;;;0.50;;
10430;SDS011;5262;59.958;17.726;2022-09-09T11:27:29;1.65;;;0.50;;
10430;SDS011;5262;59.958;17.726;2022-09-09T11:35:47;0.90;;;0.40;;
10430;SDS011;5262;59.958;17.726;2022-09-09T11:41:01;2.00;;;0.50;;
10430;SDS011;5262;59.958;17.726;2022-09-09T11:43:41;2.20;;;0.70;;
10430;SDS011;5262;59.958;17.726;2022-09-09T11:46:10;1.73;;;0.50;;
10430;SDS011;5262;59.958;17.726;2022-09-09T11:48:38;1.47;;;0.60;;
10430;SDS011;5262;59.958;17.726;2022-09-09T11:51:11;2.03;;;0.60;;
10430;SDS011;5262;59.958;17.726;2022-09-09T11:53:50;3.43;;;0.60;;
10430;SDS011;5262;59.958;17.726;2022-09-09T11:56:30;1.13;;;0.50;;
10430;SDS011;5262;59.958;17.726;2022-09-09T11:58:57;1.10;;;0.60;;
10430;SDS011;5262;59.958;17.726;2022-09-09T12:01:28;1.17;;;0.50;;
10430;SDS011;5262;59.958;17.726;2022-09-09T12:09:35;1.70;;;0.40;;
10430;SDS011;5262;59.958;17.726;2022-09-09T12:12:29;3.80;;;0.60;;
10430;SDS011;5262;59.958;17.726;2022-09-09T12:28:20;1.23;;;0.50;;
10430;SDS011;5262;59.958;17.726;2022-09-09T12:33:42;2.60;;;0.50;;
10430;SDS011;5262;59.958;17.726;2022-09-09T12:36:20;0.90;;;0.50;;
10430;SDS011;5262;59.958;17.726;2022-09-09T12:38:49;1.83;;;0.50;;
10430;SDS011;5262;59.958;17.726;2022-09-09T12:43:49;0.93;;;0.53;;
10430;SDS011;5262;59.958;17.726;2022-09-09T12:46:24;1.30;;;0.50;;
10430;SDS011;5262;59.958;17.726;2022-09-09T12:48:58;0.77;;;0.53;;
10430;SDS011;5262;59.958;17.726;2022-09-09T12:51:25;1.13;;;0.33;;
10430;SDS011;5262;59.958;17.726;2022-09-09T12:53:53;0.70;;;0.40;;
10430;SDS011;5262;59.958;17.726;2022-09-09T12:56:20;2.57;;;0.50;;
10430;SDS011;5262;59.958;17.726;2022-09-09T12:58:48;2.97;;;0.60;;
10430;SDS011;5262;59.958;17.726;2022-09-09T13:01:29;0.97;;;0.40;;
10430;SDS011;5262;59.958;17.726;2022-09-09T13:03:57;1.17;;;0.67;;
10430;SDS011;5262;59.958;17.726;2022-09-09T13:06:27;0.87;;;0.57;;
10430;SDS011;5262;59.958;17.726;2022-09-09T13:08:58;1.63;;;0.50;;
10430;SDS011;5262;59.958;17.726;2022-09-09T13:13:54;1.77;;;0.60;;
10430;SDS011;5262;59.958;17.726;2022-09-09T13:16:28;0.90;;;0.50;;
10430;SDS011;5262;59.958;17.726;2022-09-09T13:18:59;1.17;;;0.60;;
10430;SDS011;5262;59.958;17.726;2022-09-09T13:21:31;1.73;;;0.60;;
10430;SDS011;5262;59.958;17.726;2022-09-09T13:24:02;1.53;;;0.70;;
10430;SDS011;5262;59.958;17.726;2022-09-09T13:26:32;0.57;;;0.50;;
10430;SDS011;5262;59.958;17.726;2022-09-09T13:29:18;1.10;;;0.57;;
10430;SDS011;5262;59.958;17.726;2022-09-09T13:31:44;1.13;;;0.50;;
10430;SDS011;5262;59.958;17.726;2022-09-09T13:34:11;1.37;;;0.67;;
10430;SDS011;5262;59.958;17.726;2022-09-09T13:36:38;0.90;;;0.53;;
10430;SDS011;5262;59.958;17.726;2022-09-09T13:39:04;2.00;;;0.40;;
10430;SDS011;5262;59.958;17.726;2022-09-09T13:41:44;1.80;;;0.50;;
10430;SDS011;5262;59.958;17.726;2022-09-09T13:44:20;1.10;;;0.57;;
10430;SDS011;5262;59.958;17.726;2022-09-09T13:46:58;1.20;;;0.60;;
10430;SDS011;5262;59.958;17.726;2022-09-09T13:49:26;1.47;;;0.57;;
10430;SDS011;5262;59.958;17.726;2022-09-09T13:52:03;0.67;;;0.50;;
10430;SDS011;5262;59.958;17.726;2022-09-09T13:54:32;2.27;;;0.57;;
10430;SDS011;5262;59.958;17.726;2022-09-09T13:56:58;3.03;;;0.50;;
10430;SDS011;5262;59.958;17.726;2022-09-09T13:59:24;2.07;;;0.60;;
10430;SDS011;5262;59.958;17.726;2022-09-09T14:01:51;0.90;;;0.50;;
10430;SDS011;5262;59.958;17.726;2022-09-09T14:04:17;1.17;;;0.57;;
10430;SDS011;5262;59.958;17.726;2022-09-09T14:06:43;2.63;;;0.80;;
10430;SDS011;5262;59.958;17.726;2022-09-09T14:09:13;2.23;;;0.73;;
10430;SDS011;5262;59.958;17.726;2022-09-09T14:11:40;0.87;;;0.50;;
10430;SDS011;5262;59.958;17.726;2022-09-09T14:14:06;2.63;;;0.70;;
10430;SDS011;5262;59.958;17.726;2022-09-09T14:16:32;1.40;;;0.50;;
10430;SDS011;5262;59.958;17.726;2022-09-09T14:18:57;0.97;;;0.50;;
10430;SDS011;5262;59.958;17.726;2022-09-09T14:21:24;0.90;;;0.60;;
10430;SDS011;5262;59.958;17.726;2022-09-09T14:23:50;1.40;;;0.73;;
10430;SDS011;5262;59.958;17.726;2022-09-09T14:26:17;2.03;;;0.70;;
10430;SDS011;5262;59.958;17.726;2022-09-09T14:28:46;1.43;;;0.70;;
10430;SDS011;5262;59.958;17.726;2022-09-09T14:31:12;4.03;;;0.73;;
10430;SDS011;5262;59.958;17.726;2022-09-09T14:33:38;1.83;;;0.80;;
10430;SDS011;5262;59.958;17.726;2022-09-09T14:36:05;1.20;;;0.50;;
10430;SDS011;5262;59.958;17.726;2022-09-09T14:38:32;1.80;;;0.63;;
10430;SDS011;5262;59.958;17.726;2022-09-09T14:41:00;2.87;;;0.80;;
10430;SDS011;5262;59.958;17.726;2022-09-09T14:43:28;1.53;;;0.70;;
10430;SDS011;5262;59.958;17.726;2022-09-09T14:45:55;2.77;;;0.90;;
10430;SDS011;5262;59.958;17.726;2022-09-09T14:48:21;0.93;;;0.60;;
10430;SDS011;5262;59.958;17.726;2022-09-09T14:50:46;1.13;;;0.73;;
10430;SDS011;5262;59.958;17.726;2022-09-09T14:53:12;1.53;;;0.80;;
10430;SDS011;5262;59.958;17.726;2022-09-09T14:55:38;0.83;;;0.60;;
10430;SDS011;5262;59.958;17.726;2022-09-09T14:58:04;2.17;;;0.90;;
10430;SDS011;5262;59.958;17.726;2022-09-09T15:00:31;1.10;;;0.70;;
10430;SDS011;5262;59.958;17.726;2022-09-09T15:02:57;1.07;;;0.70;;
10430;SDS011;5262;59.958;17.726;2022-09-09T15:05:22;2.87;;;0.70;;
10430;SDS011;5262;59.958;17.726;2022-09-09T15:07:49;0.80;;;0.60;;
10430;SDS011;5262;59.958;17.726;2022-09-09T15:10:15;2.30;;;0.67;;
10430;SDS011;5262;59.958;17.726;2022-09-09T15:12:42;1.70;;;0.97;;
10430;SDS011;5262;59.958;17.726;2022-09-09T15:15:08;2.13;;;1.60;;
10430;SDS011;5262;59.958;17.726;2022-09-09T15:17:34;2.10;;;0.70;;
10430;SDS011;5262;59.958;17.726;2022-09-09T15:20:01;1.60;;;0.60;;
10430;SDS011;5262;59.958;17.726;2022-09-09T15:22:31;0.70;;;0.60;;
10430;SDS011;5262;59.958;17.726;2022-09-09T15:24:57;3.07;;;0.67;;
10430;SDS011;5262;59.958;17.726;2022-09-09T15:27:22;3.83;;;1.17;;
10430;SDS011;5262;59.958;17.726;2022-09-09T15:29:48;5.07;;;0.90;;
10430;SDS011;5262;59.958;17.726;2022-09-09T15:32:16;0.70;;;0.43;;
10430;SDS011;5262;59.958;17.726;2022-09-09T15:34:42;1.57;;;0.63;;
10430;SDS011;5262;59.958;17.726;2022-09-09T15:37:11;2.07;;;0.80;;
10430;SDS011;5262;59.958;17.726;2022-09-09T15:39:40;3.43;;;1.60;;
10430;SDS011;5262;59.958;17.726;2022-09-09T15:42:06;3.23;;;0.73;;
10430;SDS011;5262;59.958;17.726;2022-09-09T15:44:39;2.03;;;0.70;;
10430;SDS011;5262;59.958;17.726;2022-09-09T15:47:07;1.40;;;0.70;;
10430;SDS011;5262;59.958;17.726;2022-09-09T15:49:35;1.30;;;0.87;;
10430;SDS011;5262;59.958;17.726;2022-09-09T15:52:01;0.40;;;0.40;;
10430;SDS011;5262;59.958;17.726;2022-09-09T15:54:31;0.83;;;0.50;;
10430;SDS011;5262;59.958;17.726;2022-09-09T15:56:58;0.83;;;0.50;;
10430;SDS011;5262;59.958;17.726;2022-09-09T15:59:26;0.50;;;0.47;;
10430;SDS011;5262;59.958;17.726;2022-09-09T16:01:54;1.50;;;0.60;;
10430;SDS011;5262;59.958;17.726;2022-09-09T16:04:20;2.33;;;0.93;;
10430;SDS011;5262;59.958;17.726;2022-09-09T16:06:51;0.83;;;0.63;;
10430;SDS011;5262;59.958;17.726;2022-09-09T16:09:22;3.83;;;0.50;;
10430;SDS011;5262;59.958;17.726;2022-09-09T16:11:48;1.70;;;0.90;;
10430;SDS011;5262;59.958;17.726;2022-09-09T16:14:14;1.70;;;0.80;;
10430;SDS011;5262;59.958;17.726;2022-09-09T16:16:40;2.57;;;0.60;;
10430;SDS011;5262;59.958;17.726;2022-09-09T16:19:08;1.73;;;0.80;;
10430;SDS011;5262;59.958;17.726;2022-09-09T16:21:39;1.87;;;0.83;;
10430;SDS011;5262;59.958;17.726;2022-09-09T16:24:07;2.60;;;0.70;;
10430;SDS011;5262;59.958;17.726;2022-09-09T16:26:35;2.37;;;0.67;;
10430;SDS011;5262;59.958;17.726;2022-09-09T16:29:02;0.77;;;0.70;;
10430;SDS011;5262;59.958;17.726;2022-09-09T16:31:29;1.03;;;0.73;;
10430;SDS011;5262;59.958;17.726;2022-09-09T16:33:57;2.27;;;0.87;;
10430;SDS011;5262;59.958;17.726;2022-09-09T16:36:32;1.87;;;0.70;;
10430;SDS011;5262;59.958;17.726;2022-09-09T16:39:00;1.30;;;0.70;;
10430;SDS011;5262;59.958;17.726;2022-09-09T16:41:29;1.63;;;0.80;;
10430;SDS011;5262;59.958;17.726;2022-09-09T16:43:55;1.77;;;0.70;;
10430;SDS011;5262;59.958;17.726;2022-09-09T16:46:27;0.80;;;0.60;;
10430;SDS011;5262;59.958;17.726;2022-09-09T16:48:55;1.27;;;0.80;;
10430;SDS011;5262;59.958;17.726;2022-09-09T16:51:27;2.67;;;0.70;;
10430;SDS011;5262;59.958;17.726;2022-09-09T16:53:54;0.60;;;0.60;;
10430;SDS011;5262;59.958;17.726;2022-09-09T16:56:23;0.73;;;0.70;;
10430;SDS011;5262;59.958;17.726;2022-09-09T16:58:51;1.63;;;0.90;;
10430;SDS011;5262;59.958;17.726;2022-09-09T17:01:21;1.67;;;0.80;;
10430;SDS011;5262;59.958;17.726;2022-09-09T17:03:51;2.27;;;1.00;;
10430;SDS011;5262;59.958;17.726;2022-09-09T17:06:21;1.67;;;0.70;;
10430;SDS011;5262;59.958;17.726;2022-09-09T17:08:53;7.33;;;0.93;;
10430;SDS011;5262;59.958;17.726;2022-09-09T17:11:29;0.90;;;0.80;;
10430;SDS011;5262;59.958;17.726;2022-09-09T17:13:55;4.20;;;0.97;;
10430;SDS011;5262;59.958;17.726;2022-09-09T17:16:23;1.10;;;0.80;;
10430;SDS011;5262;59.958;17.726;2022-09-09T17:18:52;1.63;;;0.90;;
10430;SDS011;5262;59.958;17.726;2022-09-09T17:21:20;1.57;;;0.80;;